Time;durP1;ratioP1;P1;durP2;ratioP2;P2;SDS_P1;SDS_P2;PMS_P1;PMS_P2;Temp;Humidity;BMP_temperature;BMP_pressure;BME280_temperature;BME280_humidity;BME280_pressure;Samples;Min_cycle;Max_cycle;Signal;HPM_P1;HPM_P2
2022/12/30 00:00:56;;;;;;;14.57;14.00;;;8.90;99.90;;;;;;6210777;23;20401;-74
2022/12/30 00:03:22;;;;;;;15.00;14.40;;;8.90;99.90;;;;;;6210948;23;20401;-74
2022/12/30 03:44:14;;;;;;;14.60;14.10;;;6.80;99.90;;;;;;6155286;23;20949;-72
2022/12/30 03:46:42;;;;;;;14.60;14.10;;;6.60;99.90;;;;;;6211326;23;20416;-72
2022/12/30 03:49:09;;;;;;;15.07;14.47;;;6.50;99.90;;;;;;6211258;23;20409;-72
2022/12/30 03:51:36;;;;;;;13.57;13.17;;;6.50;99.90;;;;;;6211788;23;20412;-71
2022/12/30 03:54:03;;;;;;;14.77;14.27;;;6.50;99.90;;;;;;6211938;23;20441;-72
2022/12/30 03:56:29;;;;;;;14.80;14.20;;;6.50;99.90;;;;;;6211843;23;20405;-72
2022/12/30 03:58:56;;;;;;;14.93;14.33;;;6.40;99.90;;;;;;6211507;23;20405;-72
2022/12/30 04:01:24;;;;;;;14.00;13.50;;;6.30;99.90;;;;;;6211234;23;20884;-71
2022/12/30 04:03:52;;;;;;;14.60;14.10;;;6.20;99.90;;;;;;6211525;23;20484;-71
2022/12/30 04:06:19;;;;;;;15.97;14.80;;;6.20;99.90;;;;;;6211940;23;20416;-71
2022/12/30 04:08:45;;;;;;;14.90;14.30;;;6.10;99.90;;;;;;6212138;23;20412;-71
2022/12/30 04:11:12;;;;;;;14.20;13.70;;;6.10;99.90;;;;;;6211512;23;20407;-72
2022/12/30 04:13:39;;;;;;;15.33;14.53;;;6.10;99.90;;;;;;6211247;23;20673;-72
2022/12/30 04:16:06;;;;;;;15.03;14.50;;;6.10;99.90;;;;;;6211273;23;20408;-71
2022/12/30 04:18:34;;;;;;;15.10;14.50;;;6.10;99.90;;;;;;6211780;23;20729;-71
2022/12/30 04:21:01;;;;;;;15.47;14.87;;;6.10;99.90;;;;;;6211799;23;20413;-71
2022/12/30 04:23:28;;;;;;;15.30;14.60;;;6.00;99.90;;;;;;6211505;23;20405;-71
2022/12/30 04:25:54;;;;;;;15.40;14.80;;;5.90;99.90;;;;;;6211450;23;20404;-71
2022/12/30 04:28:21;;;;;;;14.63;14.10;;;5.90;99.90;;;;;;6210795;23;20751;-71
2022/12/30 04:30:49;;;;;;;15.10;14.50;;;5.90;99.90;;;;;;6210331;23;20420;-71
2022/12/30 04:33:16;;;;;;;15.23;14.70;;;5.90;99.90;;;;;;6210525;23;20417;-70
2022/12/30 04:35:44;;;;;;;15.80;15.00;;;5.80;99.90;;;;;;6209789;23;20444;-70
2022/12/30 04:38:11;;;;;;;16.60;15.90;;;5.80;99.90;;;;;;6209925;23;20417;-71
2022/12/30 04:40:38;;;;;;;16.67;16.00;;;5.80;99.90;;;;;;6209850;23;20892;-71
2022/12/30 04:43:04;;;;;;;16.73;16.03;;;5.80;99.90;;;;;;6210205;23;20437;-70
2022/12/30 04:45:31;;;;;;;16.87;16.13;;;5.80;99.90;;;;;;6210080;23;20436;-70
2022/12/30 04:47:58;;;;;;;16.30;15.60;;;5.70;99.90;;;;;;6209794;23;20413;-70
2022/12/30 04:50:25;;;;;;;16.87;16.07;;;5.70;99.90;;;;;;6210034;23;20416;-71
2022/12/30 04:52:53;;;;;;;16.60;15.80;;;5.70;99.90;;;;;;6210973;23;20424;-70
2022/12/30 04:55:20;;;;;;;16.10;15.50;;;5.70;99.90;;;;;;6211106;23;20448;-71
2022/12/30 04:57:47;;;;;;;16.93;16.03;;;5.80;99.90;;;;;;6211453;23;20417;-71
2022/12/30 05:00:14;;;;;;;17.90;17.10;;;5.80;99.90;;;;;;6210950;23;20405;-71
2022/12/30 05:02:41;;;;;;;18.70;17.60;;;5.80;99.90;;;;;;6210943;23;20405;-71
2022/12/30 05:05:08;;;;;;;17.10;16.37;;;5.80;99.90;;;;;;6210996;23;20404;-71
2022/12/30 05:07:35;;;;;;;16.60;15.80;;;5.80;99.90;;;;;;6211275;23;20409;-70
2022/12/30 05:10:03;;;;;;;17.03;16.33;;;5.80;99.90;;;;;;6211159;23;20706;-71
2022/12/30 05:12:30;;;;;;;17.80;16.90;;;5.70;99.90;;;;;;6210408;23;20415;-71
2022/12/30 05:14:57;;;;;;;17.80;17.00;;;5.70;99.90;;;;;;6209659;23;20440;-71
2022/12/30 05:17:23;;;;;;;17.57;16.87;;;5.60;99.90;;;;;;6209875;23;20409;-71
2022/12/30 05:19:50;;;;;;;17.80;17.00;;;5.50;99.90;;;;;;6210832;23;20409;-71
2022/12/30 05:22:16;;;;;;;18.00;17.30;;;5.50;99.90;;;;;;6211054;23;20408;-72
2022/12/30 05:27:29;;;;;;;18.47;17.67;;;5.40;99.90;;;;;;6210869;23;20928;-71
2022/12/30 05:29:55;;;;;;;17.80;17.10;;;5.40;99.90;;;;;;6210463;23;21099;-72
2022/12/30 05:32:22;;;;;;;16.93;16.23;;;5.30;99.90;;;;;;6210464;23;20900;-71
2022/12/30 05:34:49;;;;;;;17.10;16.37;;;5.30;99.90;;;;;;6210103;23;20966;-71
2022/12/30 05:37:16;;;;;;;17.50;16.80;;;5.30;99.90;;;;;;6211107;23;20459;-72
2022/12/30 05:39:42;;;;;;;18.10;17.40;;;5.30;99.90;;;;;;6209805;23;20911;-71
2022/12/30 05:42:09;;;;;;;18.20;17.40;;;5.30;99.90;;;;;;6210803;23;20793;-71
2022/12/30 05:44:37;;;;;;;20.00;18.93;;;5.30;99.90;;;;;;6210324;23;20456;-71
2022/12/30 05:47:04;;;;;;;17.93;17.23;;;5.30;99.90;;;;;;6211086;23;20405;-71
2022/12/30 05:49:30;;;;;;;17.40;16.50;;;5.30;99.90;;;;;;6210785;23;20415;-71
2022/12/30 05:51:57;;;;;;;18.27;17.23;;;5.30;99.90;;;;;;6210524;23;20409;-71
2022/12/30 05:54:24;;;;;;;18.60;17.80;;;5.30;99.90;;;;;;6210104;23;20636;-71
2022/12/30 05:56:50;;;;;;;19.70;18.80;;;5.40;99.90;;;;;;6210602;23;20413;-70
2022/12/30 05:59:17;;;;;;;20.50;19.30;;;5.30;99.90;;;;;;6210657;23;20428;-70
2022/12/30 06:01:45;;;;;;;18.47;17.67;;;5.20;99.90;;;;;;6210820;23;20896;-71
2022/12/30 06:04:11;;;;;;;19.90;18.90;;;5.10;99.90;;;;;;6210855;23;20899;-70
2022/12/30 06:06:38;;;;;;;19.03;18.23;;;5.10;99.90;;;;;;6210865;23;20408;-69
2022/12/30 06:09:05;;;;;;;18.67;17.70;;;5.10;99.90;;;;;;6211205;23;20412;-70
2022/12/30 06:11:32;;;;;;;19.93;19.13;;;5.10;99.90;;;;;;6212395;23;20801;-70
2022/12/30 06:13:58;;;;;;;19.60;18.80;;;5.10;99.90;;;;;;6212854;23;20408;-69
2022/12/30 06:16:25;;;;;;;18.00;17.30;;;5.10;99.90;;;;;;6212622;23;20445;-69
2022/12/30 06:18:53;;;;;;;21.20;20.10;;;5.10;99.90;;;;;;6212375;23;20416;-69
2022/12/30 06:21:20;;;;;;;18.90;17.90;;;5.00;99.90;;;;;;6212769;23;20404;-70
2022/12/30 06:23:46;;;;;;;18.90;18.10;;;5.00;99.90;;;;;;6212576;23;20416;-70
2022/12/30 06:26:13;;;;;;;18.93;18.13;;;5.10;99.90;;;;;;6212540;23;20404;-69
2022/12/30 06:28:40;;;;;;;18.40;17.50;;;5.00;99.90;;;;;;6212384;23;20415;-69
2022/12/30 06:31:06;;;;;;;18.73;17.93;;;5.00;99.90;;;;;;6212511;23;20424;-71
2022/12/30 06:33:33;;;;;;;17.60;16.90;;;5.00;99.90;;;;;;6212842;23;20408;-70
2022/12/30 06:36:01;;;;;;;19.07;18.10;;;4.90;99.90;;;;;;6212515;23;20444;-70
2022/12/30 06:38:28;;;;;;;18.90;18.00;;;4.80;99.90;;;;;;6212008;23;20412;-71
2022/12/30 06:40:54;;;;;;;19.20;18.30;;;4.80;99.90;;;;;;6212367;23;20420;-70
2022/12/30 06:43:21;;;;;;;20.97;19.97;;;4.80;99.90;;;;;;6211949;23;20433;-71
2022/12/30 06:45:48;;;;;;;21.40;20.30;;;4.80;99.90;;;;;;6212417;23;20389;-70
2022/12/30 06:48:15;;;;;;;20.30;19.30;;;4.80;99.90;;;;;;6212551;23;20765;-70
2022/12/30 06:50:41;;;;;;;20.27;19.37;;;4.70;99.90;;;;;;6211715;23;20409;-73
2022/12/30 06:53:09;;;;;;;20.63;19.43;;;4.70;99.90;;;;;;6211928;23;20405;-70
2022/12/30 06:55:36;;;;;;;20.00;19.10;;;4.70;99.90;;;;;;6211861;23;20827;-71
2022/12/30 06:58:04;;;;;;;21.37;20.37;;;4.70;99.90;;;;;;6211503;23;20412;-70
2022/12/30 07:00:31;;;;;;;22.43;20.67;;;4.60;99.90;;;;;;6211413;23;20416;-73
2022/12/30 07:02:58;;;;;;;21.67;20.37;;;4.60;99.90;;;;;;6211027;23;20417;-71
2022/12/30 07:05:25;;;;;;;21.67;20.53;;;4.50;99.90;;;;;;6210986;23;20742;-72
2022/12/30 07:07:52;;;;;;;20.83;19.80;;;4.50;99.90;;;;;;6211055;23;20439;-74
2022/12/30 07:10:20;;;;;;;21.40;20.20;;;4.60;99.90;;;;;;6211401;23;20412;-73
2022/12/30 07:12:46;;;;;;;21.77;20.53;;;4.60;99.90;;;;;;6211219;23;20409;-72
2022/12/30 07:15:13;;;;;;;21.07;19.67;;;4.60;99.90;;;;;;6210650;23;20456;-74
2022/12/30 07:17:40;;;;;;;24.10;22.07;;;4.60;99.90;;;;;;6210995;23;20511;-73
2022/12/30 07:20:08;;;;;;;21.77;20.47;;;4.70;99.90;;;;;;6210935;23;20466;-73
2022/12/30 07:22:35;;;;;;;21.33;20.33;;;4.70;99.90;;;;;;6209984;23;20896;-73
2022/12/30 07:25:01;;;;;;;21.33;20.03;;;4.70;99.90;;;;;;6211279;23;20409;-73
2022/12/30 07:27:29;;;;;;;21.43;20.43;;;4.60;99.90;;;;;;6210738;23;20409;-73
2022/12/30 07:29:56;;;;;;;21.20;20.00;;;4.60;99.90;;;;;;6210637;23;20408;-73
2022/12/30 07:32:22;;;;;;;20.83;19.83;;;4.60;99.90;;;;;;6210844;23;20408;-72
2022/12/30 07:34:49;;;;;;;21.07;20.07;;;4.60;99.90;;;;;;6208781;23;20413;-77
2022/12/30 07:37:16;;;;;;;22.60;21.40;;;4.60;99.90;;;;;;6209481;23;20397;-76
2022/12/30 07:39:43;;;;;;;22.20;21.10;;;4.60;99.90;;;;;;6210855;23;20416;-77
2022/12/30 07:42:09;;;;;;;20.90;19.90;;;4.60;99.90;;;;;;6208923;23;20768;-77
2022/12/30 07:44:38;;;;;;;20.87;19.80;;;4.70;99.90;;;;;;6210905;23;20772;-78
2022/12/30 07:47:05;;;;;;;22.20;20.90;;;4.70;99.90;;;;;;6211321;23;20436;-78
2022/12/30 07:49:31;;;;;;;20.97;19.87;;;4.90;99.90;;;;;;6209255;23;20466;-77
2022/12/30 07:51:58;;;;;;;22.67;21.17;;;5.20;99.90;;;;;;6211188;23;20408;-77
2022/12/30 07:54:25;;;;;;;21.90;20.70;;;5.40;99.90;;;;;;6211111;23;20736;-78
2022/12/30 07:56:51;;;;;;;21.80;20.57;;;5.60;99.90;;;;;;6210802;23;20440;-76
2022/12/30 07:59:18;;;;;;;23.47;22.07;;;5.70;99.90;;;;;;6211428;23;20408;-76
2022/12/30 08:01:46;;;;;;;22.27;20.97;;;5.90;99.90;;;;;;6211656;23;20404;-77
2022/12/30 08:04:13;;;;;;;23.50;22.30;;;6.10;99.90;;;;;;6211051;23;20416;-76
2022/12/30 08:06:39;;;;;;;23.10;21.80;;;6.20;99.90;;;;;;6210868;23;20412;-76
2022/12/30 08:09:06;;;;;;;19.60;18.70;;;6.30;99.90;;;;;;6211422;23;20409;-77
2022/12/30 08:11:33;;;;;;;20.23;19.23;;;6.50;99.90;;;;;;6211363;23;20412;-76
2022/12/30 08:14:00;;;;;;;17.80;17.07;;;6.50;99.90;;;;;;6211462;23;20409;-77
2022/12/30 08:16:27;;;;;;;20.40;19.00;;;6.60;99.90;;;;;;6211617;23;20444;-75
2022/12/30 08:18:55;;;;;;;18.43;17.63;;;6.60;99.90;;;;;;6211551;23;20606;-76
2022/12/30 08:21:22;;;;;;;19.10;18.20;;;6.70;99.90;;;;;;6210001;23;20416;-76
2022/12/30 08:23:49;;;;;;;17.87;17.07;;;6.90;99.90;;;;;;6210894;23;20966;-76
2022/12/30 08:26:17;;;;;;;18.70;17.80;;;7.00;99.90;;;;;;6211621;23;20420;-76
2022/12/30 08:28:44;;;;;;;16.40;15.63;;;7.20;99.90;;;;;;6211051;23;20721;-76
2022/12/30 08:31:13;;;;;;;18.17;17.07;;;7.30;99.90;;;;;;6209905;23;20412;-76
2022/12/30 08:33:40;;;;;;;16.87;16.00;;;7.50;99.90;;;;;;6209911;23;20416;-75
2022/12/30 08:36:11;;;;;;;17.00;16.10;;;7.40;99.90;;;;;;6210290;23;20982;-73
2022/12/30 08:38:39;;;;;;;17.37;16.30;;;7.40;99.90;;;;;;6210619;23;20389;-75
2022/12/30 08:41:07;;;;;;;17.50;16.70;;;7.30;99.90;;;;;;6210617;23;20409;-75
2022/12/30 08:43:34;;;;;;;16.70;15.90;;;7.40;99.90;;;;;;6210531;23;20440;-76
2022/12/30 08:46:01;;;;;;;18.77;17.87;;;7.40;99.90;;;;;;6211232;23;20409;-76
2022/12/30 08:48:27;;;;;;;16.67;15.87;;;7.50;99.90;;;;;;6210751;23;20405;-76
2022/12/30 08:50:55;;;;;;;16.07;15.37;;;7.40;99.90;;;;;;6210961;23;20405;-76
2022/12/30 08:53:23;;;;;;;15.77;15.07;;;7.30;99.90;;;;;;6210990;23;20416;-78
2022/12/30 08:55:59;;;;;;;18.73;17.80;;;7.30;99.90;;;;;;6211005;23;20451;-76
2022/12/30 08:58:26;;;;;;;16.20;15.50;;;7.60;99.90;;;;;;6210614;23;20399;-77
2022/12/30 09:00:53;;;;;;;16.07;15.27;;;7.90;99.90;;;;;;6210457;23;20913;-76
2022/12/30 09:03:19;;;;;;;16.60;15.60;;;8.30;99.90;;;;;;6210217;23;20408;-76
2022/12/30 09:05:51;;;;;;;13.57;13.03;;;8.80;99.90;;;;;;6210868;23;20408;-77
2022/12/30 09:08:18;;;;;;;14.53;13.93;;;9.20;99.90;;;;;;6211029;23;20393;-77
2022/12/30 09:10:55;;;;;;;13.67;13.13;;;9.40;99.90;;;;;;6210315;23;20416;-76
2022/12/30 09:13:22;;;;;;;13.60;13.10;;;9.30;99.90;;;;;;6210094;23;20400;-78
2022/12/30 09:15:48;;;;;;;13.53;12.83;;;9.20;99.90;;;;;;6210744;23;20444;-77
2022/12/30 09:18:15;;;;;;;13.60;13.03;;;9.10;99.90;;;;;;6210277;23;20899;-77
2022/12/30 09:20:42;;;;;;;14.17;13.40;;;9.20;99.90;;;;;;6209955;23;20408;-77
2022/12/30 09:23:09;;;;;;;14.67;13.77;;;9.30;99.90;;;;;;6210298;23;20412;-78
2022/12/30 09:25:36;;;;;;;13.27;12.60;;;9.60;99.90;;;;;;6210421;23;20405;-78
2022/12/30 09:28:04;;;;;;;13.47;12.80;;;9.70;99.90;;;;;;6210681;23;20405;-78
2022/12/30 09:30:31;;;;;;;13.70;13.00;;;9.90;99.90;;;;;;6210887;23;20729;-77
2022/12/30 09:32:58;;;;;;;12.73;12.30;;;9.90;99.90;;;;;;6210130;23;20911;-77
2022/12/30 09:35:24;;;;;;;14.03;13.33;;;9.90;99.90;;;;;;6210237;23;20409;-77
2022/12/30 09:37:51;;;;;;;13.83;13.20;;;10.10;99.90;;;;;;6209359;23;20415;-77
2022/12/30 09:40:24;;;;;;;12.50;12.00;;;10.10;99.90;;;;;;6208916;23;20416;-77
2022/12/30 09:45:53;;;;;;;13.90;13.20;;;10.60;99.90;;;;;;6210439;23;20872;-77
2022/12/30 09:48:24;;;;;;;12.27;11.77;;;10.80;99.90;;;;;;6212372;23;20393;-77
2022/12/30 09:50:54;;;;;;;12.80;12.30;;;11.00;99.90;;;;;;6212328;23;20392;-77
2022/12/30 09:53:31;;;;;;;13.80;13.30;;;11.10;99.90;;;;;;6212201;23;20415;-77
2022/12/30 09:56:02;;;;;;;13.50;12.80;;;10.90;99.90;;;;;;6212051;23;20937;-75
2022/12/30 09:58:30;;;;;;;12.33;11.87;;;10.70;99.90;;;;;;6212478;23;20818;-80
2022/12/30 10:01:07;;;;;;;13.07;12.47;;;10.90;99.90;;;;;;6212388;23;20904;-79
2022/12/30 10:03:34;;;;;;;13.40;12.63;;;11.00;99.90;;;;;;6212746;23;20396;-80
2022/12/30 10:06:09;;;;;;;12.50;11.90;;;11.00;99.90;;;;;;6212936;23;20411;-79
2022/12/30 10:08:51;;;;;;;12.23;11.73;;;10.90;99.90;;;;;;6212373;23;20892;-80
2022/12/30 10:11:27;;;;;;;12.30;11.80;;;10.90;99.90;;;;;;6212718;23;20389;-80
2022/12/30 10:14:06;;;;;;;12.10;11.50;;;10.90;99.90;;;;;;6211580;23;20408;-80
2022/12/30 10:16:45;;;;;;;12.30;11.70;;;11.10;99.90;;;;;;6211929;23;20431;-80
2022/12/30 10:19:19;;;;;;;12.50;11.80;;;11.00;99.90;;;;;;6212183;23;20393;-81
2022/12/30 10:21:55;;;;;;;12.37;11.87;;;11.00;99.90;;;;;;6210181;23;20408;-82
2022/12/30 10:24:48;;;;;;;13.23;12.73;;;11.00;99.90;;;;;;6211384;23;20393;-81
2022/12/30 10:27:19;;;;;;;13.40;12.90;;;11.40;99.90;;;;;;6209073;23;20467;-81
2022/12/30 10:29:46;;;;;;;13.30;12.80;;;11.70;99.90;;;;;;6212057;23;20393;-80
2022/12/30 10:32:21;;;;;;;13.37;12.70;;;11.70;99.90;;;;;;6211709;23;20409;-80
2022/12/30 10:34:49;;;;;;;13.60;13.10;;;11.70;99.90;;;;;;6212546;23;20392;-80
2022/12/30 10:37:23;;;;;;;14.00;13.40;;;11.80;99.90;;;;;;6212811;23;20452;-80
2022/12/30 10:39:52;;;;;;;13.13;12.53;;;11.70;99.90;;;;;;6212841;23;20728;-80
2022/12/30 10:42:29;;;;;;;13.80;13.10;;;11.80;99.90;;;;;;6212111;23;20429;-81
2022/12/30 10:45:13;;;;;;;12.30;11.80;;;12.00;99.90;;;;;;6211753;23;20436;-80
2022/12/30 10:47:52;;;;;;;12.60;12.00;;;12.00;99.90;;;;;;6212362;23;20661;-77
2022/12/30 10:50:30;;;;;;;12.40;11.70;;;12.00;99.90;;;;;;6212801;23;20393;-75
2022/12/30 10:52:57;;;;;;;11.87;11.47;;;12.00;99.90;;;;;;6212336;23;20397;-80
2022/12/30 10:55:27;;;;;;;11.90;11.50;;;12.20;99.90;;;;;;6211816;23;20408;-80
2022/12/30 10:57:59;;;;;;;13.60;13.00;;;12.20;99.90;;;;;;6209393;23;20444;-80
2022/12/30 11:00:26;;;;;;;12.27;11.87;;;12.20;99.90;;;;;;6211584;23;20401;-80
2022/12/30 11:02:58;;;;;;;11.57;11.07;;;12.20;99.90;;;;;;6211833;23;20405;-80
2022/12/30 11:05:31;;;;;;;11.77;11.37;;;12.10;99.90;;;;;;6211607;23;20650;-81
2022/12/30 11:07:59;;;;;;;13.80;13.30;;;12.10;99.90;;;;;;6211734;23;20389;-80
2022/12/30 11:10:27;;;;;;;12.90;12.30;;;12.30;99.90;;;;;;6211690;23;20785;-81
2022/12/30 11:15:53;;;;;;;12.50;12.00;;;12.00;99.90;;;;;;6211928;23;20863;-80
2022/12/30 11:18:26;;;;;;;12.50;12.00;;;11.90;99.90;;;;;;6211968;23;20409;-81
2022/12/30 11:20:55;;;;;;;11.57;11.17;;;12.10;99.90;;;;;;6211547;23;20883;-81
2022/12/30 11:23:27;;;;;;;12.90;12.40;;;12.40;99.90;;;;;;6211714;23;20423;-81
2022/12/30 11:25:54;;;;;;;11.30;10.83;;;12.30;99.90;;;;;;6210319;23;21017;-81
2022/12/30 11:28:23;;;;;;;11.97;11.50;;;12.00;99.90;;;;;;6210809;23;20747;-80
2022/12/30 11:31:02;;;;;;;10.80;10.37;;;11.90;99.90;;;;;;6210707;23;20425;-80
2022/12/30 11:33:34;;;;;;;12.73;12.23;;;11.80;99.90;;;;;;6210815;23;20401;-80
2022/12/30 11:36:33;;;;;;;11.00;10.70;;;11.80;99.90;;;;;;6210422;23;20408;-80
2022/12/30 11:39:24;;;;;;;11.10;10.77;;;11.60;99.90;;;;;;6176086;23;20424;-79
2022/12/30 11:41:52;;;;;;;11.70;11.30;;;11.60;99.90;;;;;;6210578;23;20428;-79
2022/12/30 11:44:23;;;;;;;11.30;10.90;;;11.90;99.90;;;;;;6210506;23;20459;-80
2022/12/30 11:46:52;;;;;;;12.00;11.53;;;12.20;99.90;;;;;;6210877;23;20389;-79
2022/12/30 11:49:26;;;;;;;11.40;11.00;;;12.10;99.90;;;;;;6210452;23;20412;-80
2022/12/30 11:51:56;;;;;;;10.33;10.03;;;12.00;99.90;;;;;;6209398;23;20695;-80
2022/12/30 11:54:25;;;;;;;12.07;11.47;;;11.90;99.90;;;;;;6210367;23;20411;-80
2022/12/30 11:56:53;;;;;;;11.93;11.53;;;11.80;99.90;;;;;;6210181;23;20448;-80
2022/12/30 11:59:25;;;;;;;11.40;11.00;;;11.80;99.90;;;;;;6210784;23;20413;-80
2022/12/30 12:01:55;;;;;;;11.23;10.83;;;11.80;99.90;;;;;;6211936;23;20393;-86
2022/12/30 12:04:38;;;;;;;11.70;11.30;;;11.70;99.90;;;;;;6210079;23;20888;-76
2022/12/30 12:07:06;;;;;;;11.03;10.73;;;11.60;99.90;;;;;;6209013;23;20403;-78
2022/12/30 12:09:38;;;;;;;10.87;10.43;;;11.50;99.90;;;;;;6210404;23;20870;-78
2022/12/30 12:12:11;;;;;;;10.93;10.53;;;11.50;99.90;;;;;;6211052;23;20401;-79
2022/12/30 12:14:53;;;;;;;11.27;10.97;;;11.40;99.90;;;;;;6211703;23;20757;-77
2022/12/30 12:17:29;;;;;;;11.87;11.40;;;11.40;99.90;;;;;;6211517;23;20425;-77
2022/12/30 12:20:05;;;;;;;11.33;10.93;;;11.30;99.90;;;;;;6211296;23;20593;-77
2022/12/30 12:22:37;;;;;;;11.50;11.10;;;11.30;99.90;;;;;;6211714;23;20407;-77
2022/12/30 12:25:11;;;;;;;10.20;9.90;;;11.30;99.90;;;;;;6211357;23;20403;-77
2022/12/30 12:27:38;;;;;;;10.20;9.90;;;11.20;99.90;;;;;;6211172;23;20381;-77
2022/12/30 12:30:11;;;;;;;11.00;10.70;;;11.20;99.90;;;;;;6211329;23;20431;-77
2022/12/30 12:32:54;;;;;;;11.40;11.10;;;11.10;99.90;;;;;;6210923;23;20385;-77
2022/12/30 12:35:30;;;;;;;11.27;10.97;;;11.10;99.90;;;;;;6211231;23;20393;-78
2022/12/30 12:38:10;;;;;;;10.80;10.40;;;11.20;99.90;;;;;;6211000;23;20428;-79
2022/12/30 12:41:10;;;;;;;11.10;10.70;;;11.20;99.90;;;;;;6211370;23;20451;-78
2022/12/30 12:43:48;;;;;;;11.10;10.70;;;11.10;99.90;;;;;;6211319;23;20448;-79
2022/12/30 12:46:28;;;;;;;10.90;10.60;;;11.20;99.90;;;;;;6212198;23;20721;-78
2022/12/30 12:49:25;;;;;;;10.20;9.90;;;11.10;99.90;;;;;;6209404;23;20416;-79
2022/12/30 12:52:05;;;;;;;11.40;11.00;;;11.20;99.90;;;;;;6210941;23;20428;-79
2022/12/30 12:55:00;;;;;;;11.30;11.00;;;11.20;99.90;;;;;;6211689;23;20389;-79
2022/12/30 12:57:35;;;;;;;11.67;11.27;;;11.20;99.90;;;;;;6210728;23;20454;-79
2022/12/30 13:00:11;;;;;;;11.33;10.57;;;11.20;99.90;;;;;;6211293;23;20388;-79
2022/12/30 13:03:21;;;;;;;12.00;11.50;;;11.20;99.90;;;;;;6210956;23;20417;-79
2022/12/30 13:05:55;;;;;;;12.10;11.70;;;11.20;99.90;;;;;;6211700;23;20399;-79
2022/12/30 13:08:41;;;;;;;12.23;11.57;;;11.20;99.90;;;;;;6210892;23;20959;-80
2022/12/30 13:11:15;;;;;;;12.23;11.70;;;11.20;99.90;;;;;;6211028;23;20389;-79
2022/12/30 13:13:49;;;;;;;11.80;11.30;;;11.20;99.90;;;;;;6211250;23;20397;-79
2022/12/30 13:16:19;;;;;;;11.53;11.13;;;11.10;99.90;;;;;;6211080;23;20852;-80
2022/12/30 13:18:50;;;;;;;10.30;10.00;;;11.10;99.90;;;;;;6211344;23;20416;-79
2022/12/30 13:21:20;;;;;;;11.70;11.20;;;11.10;99.90;;;;;;6213581;23;20718;-79
2022/12/30 13:23:53;;;;;;;12.90;12.40;;;11.10;99.90;;;;;;6213788;23;20488;-78
2022/12/30 13:26:23;;;;;;;12.23;11.73;;;11.10;99.90;;;;;;6213036;23;20432;-78
2022/12/30 13:28:53;;;;;;;11.97;11.57;;;11.20;99.90;;;;;;6212756;23;20415;-79
2022/12/30 13:31:30;;;;;;;11.93;11.53;;;11.20;99.90;;;;;;6213110;23;20427;-79
2022/12/30 13:34:06;;;;;;;12.57;12.17;;;11.30;99.90;;;;;;6210268;23;20409;-79
2022/12/30 13:36:40;;;;;;;12.57;11.87;;;11.30;99.90;;;;;;6212743;23;20397;-78
2022/12/30 13:39:30;;;;;;;12.13;11.63;;;11.30;99.90;;;;;;6212425;23;20397;-78
2022/12/30 13:42:34;;;;;;;11.70;11.20;;;11.30;99.90;;;;;;6212129;23;20722;-78
2022/12/30 13:45:02;;;;;;;12.93;12.53;;;11.40;99.90;;;;;;6212522;23;20440;-78
2022/12/30 13:47:35;;;;;;;12.10;11.50;;;11.40;99.90;;;;;;6212251;23;20888;-78
2022/12/30 13:50:13;;;;;;;11.60;11.20;;;11.40;99.90;;;;;;6212575;23;20416;-78
2022/12/30 13:52:45;;;;;;;11.13;10.73;;;11.40;99.90;;;;;;6211968;23;20709;-78
2022/12/30 13:55:20;;;;;;;11.40;11.00;;;11.40;99.90;;;;;;6212279;23;20690;-77
2022/12/30 13:57:51;;;;;;;13.33;12.63;;;11.40;99.90;;;;;;6212554;23;20482;-77
2022/12/30 14:00:30;;;;;;;12.20;11.70;;;11.40;99.90;;;;;;6212517;23;20400;-78
2022/12/30 14:03:03;;;;;;;11.00;10.50;;;11.40;99.90;;;;;;6212153;23;20393;-78
2022/12/30 14:05:52;;;;;;;12.20;11.80;;;11.50;99.90;;;;;;6212802;23;20404;-77
2022/12/30 14:08:43;;;;;;;12.00;11.50;;;11.40;99.90;;;;;;6212918;23;20412;-78
2022/12/30 14:11:13;;;;;;;14.17;13.13;;;11.40;99.90;;;;;;6212363;23;20409;-77
2022/12/30 14:13:42;;;;;;;12.37;11.90;;;11.30;99.90;;;;;;6212540;23;20724;-76
2022/12/30 14:16:43;;;;;;;12.20;11.70;;;11.20;99.90;;;;;;6212318;23;20456;-77
2022/12/30 14:19:13;;;;;;;11.47;11.07;;;11.20;99.90;;;;;;6212364;23;20393;-77
2022/12/30 14:21:50;;;;;;;12.33;11.93;;;11.20;99.90;;;;;;6212318;23;20785;-77
2022/12/30 14:24:46;;;;;;;12.60;12.00;;;11.10;99.90;;;;;;6212882;23;20400;-76
2022/12/30 14:27:30;;;;;;;12.87;12.37;;;11.10;99.90;;;;;;6212442;23;20405;-76
2022/12/30 14:30:04;;;;;;;13.40;12.80;;;11.00;99.90;;;;;;6210498;23;20742;-75
2022/12/30 14:32:31;;;;;;;14.50;13.90;;;10.90;99.90;;;;;;6212260;23;20416;-76
2022/12/30 14:34:59;;;;;;;14.70;14.10;;;10.90;99.90;;;;;;6212421;23;20409;-74
2022/12/30 14:37:26;;;;;;;15.17;14.57;;;10.80;99.90;;;;;;6212229;23;20475;-75
2022/12/30 14:39:53;;;;;;;15.67;14.97;;;10.70;99.90;;;;;;6212187;23;20405;-73
2022/12/30 14:42:26;;;;;;;17.50;16.70;;;10.70;99.90;;;;;;6212257;23;20433;-73
2022/12/30 14:44:58;;;;;;;15.77;15.07;;;10.70;99.90;;;;;;6211786;23;20462;-74
2022/12/30 14:47:38;;;;;;;15.73;15.03;;;10.70;99.90;;;;;;6211910;23;20393;-75
2022/12/30 14:50:07;;;;;;;15.20;14.30;;;10.70;99.90;;;;;;6211898;23;20901;-76
2022/12/30 14:52:35;;;;;;;16.07;15.17;;;10.70;99.90;;;;;;6212401;23;20432;-76
2022/12/30 14:55:10;;;;;;;14.87;14.10;;;10.80;99.90;;;;;;6212219;23;20409;-76
2022/12/30 14:57:39;;;;;;;14.43;13.53;;;10.90;99.90;;;;;;6211513;23;20432;-76
2022/12/30 15:00:21;;;;;;;14.50;13.70;;;10.90;99.90;;;;;;6212004;23;20425;-76
2022/12/30 15:02:50;;;;;;;15.20;14.40;;;11.00;99.90;;;;;;6211165;23;20551;-76
2022/12/30 15:05:20;;;;;;;17.30;16.10;;;11.00;99.90;;;;;;6210352;23;20413;-75
2022/12/30 15:07:49;;;;;;;16.17;15.17;;;11.00;99.90;;;;;;6210941;23;20526;-75
2022/12/30 15:10:36;;;;;;;16.10;14.97;;;10.90;99.90;;;;;;6210737;23;20408;-75
2022/12/30 15:13:17;;;;;;;15.40;14.50;;;10.90;99.90;;;;;;6210860;23;20869;-75
2022/12/30 15:15:49;;;;;;;14.90;14.00;;;10.80;99.90;;;;;;6211097;23;20397;-75
2022/12/30 15:18:34;;;;;;;13.83;13.23;;;10.70;99.90;;;;;;6210341;23;20433;-76
2022/12/30 15:21:19;;;;;;;13.80;13.13;;;10.70;99.90;;;;;;6208808;23;20900;-76
2022/12/30 15:23:46;;;;;;;13.00;12.60;;;10.80;99.90;;;;;;6211318;23;20393;-76
2022/12/30 15:26:17;;;;;;;13.20;12.70;;;10.80;99.90;;;;;;6210252;23;20412;-76
2022/12/30 15:28:44;;;;;;;13.97;13.37;;;10.80;99.90;;;;;;6210865;23;20396;-75
2022/12/30 15:31:18;;;;;;;12.23;11.83;;;10.90;99.90;;;;;;6210164;23;20401;-74
2022/12/30 15:33:55;;;;;;;11.63;11.23;;;10.90;99.90;;;;;;6210483;23;21039;-75
2022/12/30 15:36:22;;;;;;;12.33;11.83;;;10.80;99.90;;;;;;6210425;23;20428;-76
2022/12/30 15:38:50;;;;;;;13.40;12.90;;;10.80;99.90;;;;;;6210650;23;20448;-75
2022/12/30 15:41:22;;;;;;;14.20;13.70;;;10.80;99.90;;;;;;6210623;23;20423;-75
2022/12/30 15:43:50;;;;;;;17.00;16.40;;;10.80;99.90;;;;;;6209741;23;20451;-74
2022/12/30 15:46:25;;;;;;;15.30;14.70;;;10.70;99.90;;;;;;6210401;23;20813;-75
2022/12/30 15:49:10;;;;;;;14.07;13.50;;;10.60;99.90;;;;;;6210336;23;20389;-74
2022/12/30 15:51:39;;;;;;;13.33;12.83;;;10.60;99.90;;;;;;6210195;23;20397;-75
2022/12/30 15:54:08;;;;;;;12.10;11.70;;;10.60;99.90;;;;;;6210164;23;20703;-76
2022/12/30 15:56:36;;;;;;;13.47;12.77;;;10.60;99.90;;;;;;6209966;23;20424;-76
2022/12/30 15:59:06;;;;;;;12.20;11.80;;;10.70;99.90;;;;;;6210453;23;20444;-75
2022/12/30 16:01:38;;;;;;;13.90;13.40;;;10.80;99.90;;;;;;6210309;23;20393;-75
2022/12/30 16:04:07;;;;;;;12.00;11.60;;;10.80;99.90;;;;;;6210221;23;20710;-75
2022/12/30 16:06:34;;;;;;;11.40;11.03;;;10.80;99.90;;;;;;6210194;23;20416;-75
2022/12/30 16:09:01;;;;;;;12.77;12.27;;;10.90;99.90;;;;;;6210183;23;20405;-75
2022/12/30 16:11:30;;;;;;;12.13;11.73;;;10.90;99.90;;;;;;6209761;23;20896;-75
2022/12/30 16:14:18;;;;;;;12.30;11.90;;;10.90;99.90;;;;;;6210161;23;20408;-75
2022/12/30 16:16:46;;;;;;;12.47;11.97;;;10.90;99.90;;;;;;6210003;23;20737;-76
2022/12/30 16:19:15;;;;;;;12.57;11.97;;;11.00;99.90;;;;;;6211341;23;20447;-76
2022/12/30 16:21:50;;;;;;;12.73;12.27;;;11.00;99.90;;;;;;6211039;23;20416;-76
2022/12/30 16:24:30;;;;;;;11.90;11.43;;;11.00;99.90;;;;;;6211468;23;20397;-76
2022/12/30 16:27:01;;;;;;;13.43;12.93;;;11.00;99.90;;;;;;6211164;23;20737;-76
2022/12/30 16:29:30;;;;;;;11.90;11.50;;;11.10;99.90;;;;;;6211180;23;20409;-77
2022/12/30 16:31:59;;;;;;;11.23;10.83;;;11.10;99.90;;;;;;6210916;23;20412;-77
2022/12/30 16:34:26;;;;;;;12.73;12.33;;;11.10;99.90;;;;;;6211182;23;20408;-77
2022/12/30 16:36:54;;;;;;;11.40;11.00;;;11.10;99.90;;;;;;6210803;23;20477;-77